KBZN/BZN METAR and TAF weather

Enter ICAO airport designator
Station Type Date Time Source
KBZN METAR 2024/06/15 23:56 UTC NOAA

KBZN 152356Z 36014G21KT 10SM FEW070 BKN100 14/07 A2982 RMK AO2 RAE00 SLP079 P0000 60000 T01390067 10233 20117 51047


Station Type Date Time Source
KBZN Decoded METAR 2024/06/15 23:56 UTC NOAA

BOZEMAN GALLATIN FIELD, MT, United States (KBZN) 45-47N 111-09W 1361M
Jun 15, 2024 - 07:56 PM EDT / 2024.06.15 2356 UTC
Wind: from the N (360 degrees) at 16 MPH (14 KT) gusting to 24 MPH (21 KT):0
Visibility: 10 mile(s):0
Sky conditions: mostly cloudy
Precipitation last hour: A trace
Temperature: 57.0 F (13.9 C)
Dew Point: 44.1 F (6.7 C)
Relative Humidity: 61%
Pressure (altimeter): 29.82 in. Hg (1009 hPa)
Pressure tendency: 0.14 inches (4.7 hPa) higher than three hours ago
ob: KBZN 152356Z 36014G21KT 10SM FEW070 BKN100 14/07 A2982 RMK AO2 RAE00 SLP079 P0000 60000 T01390067 10233 20117 51047
cycle: 0

Station Type Date Time Source
KBZN TAF 2024/06/15 22:12 UTC NOAA